sensor_id;sensor_type;location;lat;lon;timestamp;P1;durP1;ratioP1;P2;durP2;ratioP2
69087;SDS011;56190;43.562;5.036;2024-01-16T00:00:43;4.57;;;4.05;;
69087;SDS011;56190;43.562;5.036;2024-01-16T00:03:09;5.35;;;4.35;;
69087;SDS011;56190;43.562;5.036;2024-01-16T00:05:34;4.22;;;3.83;;
69087;SDS011;56190;43.562;5.036;2024-01-16T00:07:59;3.42;;;3.13;;
69087;SDS011;56190;43.562;5.036;2024-01-16T00:10:25;3.75;;;3.38;;
69087;SDS011;56190;43.562;5.036;2024-01-16T00:12:50;3.75;;;3.20;;
69087;SDS011;56190;43.562;5.036;2024-01-16T00:15:15;3.20;;;2.90;;
69087;SDS011;56190;43.562;5.036;2024-01-16T00:17:40;3.92;;;3.05;;
69087;SDS011;56190;43.562;5.036;2024-01-16T00:20:06;2.97;;;2.67;;
69087;SDS011;56190;43.562;5.036;2024-01-16T00:22:31;3.15;;;2.50;;
69087;SDS011;56190;43.562;5.036;2024-01-16T00:24:57;2.72;;;2.53;;
69087;SDS011;56190;43.562;5.036;2024-01-16T00:27:22;3.47;;;2.83;;
69087;SDS011;56190;43.562;5.036;2024-01-16T00:29:47;2.92;;;2.63;;
69087;SDS011;56190;43.562;5.036;2024-01-16T00:32:13;2.88;;;2.55;;
69087;SDS011;56190;43.562;5.036;2024-01-16T00:34:41;2.55;;;2.35;;
69087;SDS011;56190;43.562;5.036;2024-01-16T00:37:06;2.67;;;2.40;;
69087;SDS011;56190;43.562;5.036;2024-01-16T00:39:31;3.00;;;2.70;;
69087;SDS011;56190;43.562;5.036;2024-01-16T00:41:58;3.40;;;2.83;;
69087;SDS011;56190;43.562;5.036;2024-01-16T00:44:23;3.22;;;2.55;;
69087;SDS011;56190;43.562;5.036;2024-01-16T00:46:48;2.30;;;2.10;;
69087;SDS011;56190;43.562;5.036;2024-01-16T00:49:14;3.42;;;2.88;;
69087;SDS011;56190;43.562;5.036;2024-01-16T00:51:39;3.20;;;2.60;;
69087;SDS011;56190;43.562;5.036;2024-01-16T00:54:04;3.78;;;2.40;;
69087;SDS011;56190;43.562;5.036;2024-01-16T00:56:32;2.30;;;2.10;;
69087;SDS011;56190;43.562;5.036;2024-01-16T00:58:59;4.13;;;2.08;;
69087;SDS011;56190;43.562;5.036;2024-01-16T01:01:24;2.20;;;1.90;;
69087;SDS011;56190;43.562;5.036;2024-01-16T01:03:50;1.90;;;1.80;;
69087;SDS011;56190;43.562;5.036;2024-01-16T01:06:15;1.75;;;1.65;;
69087;SDS011;56190;43.562;5.036;2024-01-16T01:08:41;2.10;;;1.90;;
69087;SDS011;56190;43.562;5.036;2024-01-16T01:11:06;1.98;;;1.80;;
69087;SDS011;56190;43.562;5.036;2024-01-16T01:13:31;2.40;;;1.90;;
69087;SDS011;56190;43.562;5.036;2024-01-16T01:15:56;2.08;;;1.88;;
69087;SDS011;56190;43.562;5.036;2024-01-16T01:18:22;2.30;;;2.10;;
69087;SDS011;56190;43.562;5.036;2024-01-16T01:20:47;2.28;;;1.92;;
69087;SDS011;56190;43.562;5.036;2024-01-16T01:23:13;2.63;;;2.13;;
69087;SDS011;56190;43.562;5.036;2024-01-16T01:25:38;3.28;;;1.95;;
69087;SDS011;56190;43.562;5.036;2024-01-16T01:28:03;2.25;;;2.05;;
69087;SDS011;56190;43.562;5.036;2024-01-16T01:30:28;2.30;;;2.10;;
69087;SDS011;56190;43.562;5.036;2024-01-16T01:32:54;2.45;;;2.25;;
69087;SDS011;56190;43.562;5.036;2024-01-16T01:35:19;2.67;;;2.40;;
69087;SDS011;56190;43.562;5.036;2024-01-16T01:37:47;2.58;;;2.33;;
69087;SDS011;56190;43.562;5.036;2024-01-16T01:40:12;2.67;;;2.45;;
69087;SDS011;56190;43.562;5.036;2024-01-16T01:42:40;2.67;;;2.45;;
69087;SDS011;56190;43.562;5.036;2024-01-16T01:45:06;2.63;;;2.42;;
69087;SDS011;56190;43.562;5.036;2024-01-16T01:47:32;3.10;;;2.80;;
69087;SDS011;56190;43.562;5.036;2024-01-16T01:49:57;3.97;;;2.78;;
69087;SDS011;56190;43.562;5.036;2024-01-16T01:52:23;3.38;;;2.85;;
69087;SDS011;56190;43.562;5.036;2024-01-16T01:54:48;2.90;;;2.70;;
69087;SDS011;56190;43.562;5.036;2024-01-16T01:57:14;3.10;;;2.70;;
69087;SDS011;56190;43.562;5.036;2024-01-16T01:59:39;2.97;;;2.60;;
69087;SDS011;56190;43.562;5.036;2024-01-16T02:02:04;3.58;;;3.13;;
69087;SDS011;56190;43.562;5.036;2024-01-16T02:04:30;2.83;;;2.63;;
69087;SDS011;56190;43.562;5.036;2024-01-16T02:06:56;3.20;;;2.90;;
69087;SDS011;56190;43.562;5.036;2024-01-16T02:09:22;3.85;;;3.08;;
69087;SDS011;56190;43.562;5.036;2024-01-16T02:11:47;3.13;;;2.83;;
69087;SDS011;56190;43.562;5.036;2024-01-16T02:14:12;4.03;;;3.42;;
69087;SDS011;56190;43.562;5.036;2024-01-16T02:16:38;3.80;;;3.22;;
69087;SDS011;56190;43.562;5.036;2024-01-16T02:19:04;3.95;;;3.55;;
69087;SDS011;56190;43.562;5.036;2024-01-16T02:21:30;4.47;;;3.80;;
69087;SDS011;56190;43.562;5.036;2024-01-16T02:23:57;4.22;;;3.38;;
69087;SDS011;56190;43.562;5.036;2024-01-16T02:26:23;4.00;;;3.60;;
69087;SDS011;56190;43.562;5.036;2024-01-16T02:28:48;4.03;;;3.63;;
69087;SDS011;56190;43.562;5.036;2024-01-16T02:31:14;3.88;;;3.47;;
69087;SDS011;56190;43.562;5.036;2024-01-16T02:33:39;4.10;;;3.28;;
69087;SDS011;56190;43.562;5.036;2024-01-16T02:36:04;4.18;;;3.20;;
69087;SDS011;56190;43.562;5.036;2024-01-16T02:38:29;3.72;;;3.35;;
69087;SDS011;56190;43.562;5.036;2024-01-16T02:40:55;3.97;;;3.38;;
69087;SDS011;56190;43.562;5.036;2024-01-16T02:43:20;3.53;;;3.22;;
69087;SDS011;56190;43.562;5.036;2024-01-16T02:45:46;4.80;;;3.80;;
69087;SDS011;56190;43.562;5.036;2024-01-16T02:48:11;4.00;;;3.50;;
69087;SDS011;56190;43.562;5.036;2024-01-16T02:50:37;3.47;;;3.17;;
69087;SDS011;56190;43.562;5.036;2024-01-16T02:53:03;3.03;;;2.72;;
69087;SDS011;56190;43.562;5.036;2024-01-16T02:55:28;4.18;;;3.78;;
69087;SDS011;56190;43.562;5.036;2024-01-16T02:57:54;3.88;;;3.22;;
69087;SDS011;56190;43.562;5.036;2024-01-16T03:00:19;3.45;;;3.10;;
69087;SDS011;56190;43.562;5.036;2024-01-16T03:02:44;3.60;;;3.30;;
69087;SDS011;56190;43.562;5.036;2024-01-16T03:05:10;3.88;;;3.47;;
69087;SDS011;56190;43.562;5.036;2024-01-16T03:07:36;3.65;;;3.28;;
69087;SDS011;56190;43.562;5.036;2024-01-16T03:10:01;4.10;;;3.70;;
69087;SDS011;56190;43.562;5.036;2024-01-16T03:12:26;4.78;;;3.83;;
69087;SDS011;56190;43.562;5.036;2024-01-16T03:14:51;4.18;;;3.78;;
69087;SDS011;56190;43.562;5.036;2024-01-16T03:17:18;4.18;;;3.60;;
69087;SDS011;56190;43.562;5.036;2024-01-16T03:19:43;4.20;;;3.80;;
69087;SDS011;56190;43.562;5.036;2024-01-16T03:22:09;4.55;;;3.83;;
69087;SDS011;56190;43.562;5.036;2024-01-16T03:24:34;4.25;;;3.50;;
69087;SDS011;56190;43.562;5.036;2024-01-16T03:26:59;4.22;;;3.70;;
69087;SDS011;56190;43.562;5.036;2024-01-16T03:29:24;3.90;;;3.40;;
69087;SDS011;56190;43.562;5.036;2024-01-16T03:31:50;4.78;;;4.10;;
69087;SDS011;56190;43.562;5.036;2024-01-16T03:34:15;4.50;;;3.97;;
69087;SDS011;56190;43.562;5.036;2024-01-16T03:36:40;5.53;;;3.92;;
69087;SDS011;56190;43.562;5.036;2024-01-16T03:39:06;4.45;;;3.53;;
69087;SDS011;56190;43.562;5.036;2024-01-16T03:41:31;4.35;;;3.88;;
69087;SDS011;56190;43.562;5.036;2024-01-16T03:43:57;4.50;;;3.83;;
69087;SDS011;56190;43.562;5.036;2024-01-16T03:46:22;4.30;;;3.70;;
69087;SDS011;56190;43.562;5.036;2024-01-16T03:48:47;4.35;;;3.33;;
69087;SDS011;56190;43.562;5.036;2024-01-16T03:51:13;4.30;;;3.45;;
69087;SDS011;56190;43.562;5.036;2024-01-16T03:53:40;5.20;;;4.05;;
69087;SDS011;56190;43.562;5.036;2024-01-16T03:56:05;4.05;;;3.65;;
69087;SDS011;56190;43.562;5.036;2024-01-16T03:58:32;4.68;;;3.58;;
69087;SDS011;56190;43.562;5.036;2024-01-16T04:00:58;4.47;;;4.07;;
69087;SDS011;56190;43.562;5.036;2024-01-16T04:03:23;4.80;;;3.90;;
69087;SDS011;56190;43.562;5.036;2024-01-16T04:05:48;4.45;;;3.72;;
69087;SDS011;56190;43.562;5.036;2024-01-16T04:08:13;5.00;;;4.03;;
69087;SDS011;56190;43.562;5.036;2024-01-16T04:10:39;5.13;;;4.25;;
69087;SDS011;56190;43.562;5.036;2024-01-16T04:13:04;5.75;;;3.88;;
69087;SDS011;56190;43.562;5.036;2024-01-16T04:15:29;4.72;;;4.13;;
69087;SDS011;56190;43.562;5.036;2024-01-16T04:17:55;4.50;;;3.60;;
69087;SDS011;56190;43.562;5.036;2024-01-16T04:20:20;4.32;;;3.92;;
69087;SDS011;56190;43.562;5.036;2024-01-16T04:22:46;4.60;;;3.97;;
69087;SDS011;56190;43.562;5.036;2024-01-16T04:25:11;4.65;;;4.07;;
69087;SDS011;56190;43.562;5.036;2024-01-16T04:27:36;4.82;;;4.20;;
69087;SDS011;56190;43.562;5.036;2024-01-16T04:30:01;4.40;;;4.00;;
69087;SDS011;56190;43.562;5.036;2024-01-16T04:32:27;4.90;;;3.67;;
69087;SDS011;56190;43.562;5.036;2024-01-16T04:34:52;4.65;;;3.97;;
69087;SDS011;56190;43.562;5.036;2024-01-16T04:37:18;4.90;;;4.07;;
69087;SDS011;56190;43.562;5.036;2024-01-16T04:39:43;4.57;;;4.15;;
69087;SDS011;56190;43.562;5.036;2024-01-16T04:42:08;5.53;;;4.40;;
69087;SDS011;56190;43.562;5.036;2024-01-16T04:44:34;4.90;;;4.30;;
69087;SDS011;56190;43.562;5.036;2024-01-16T04:46:59;5.75;;;4.47;;
69087;SDS011;56190;43.562;5.036;2024-01-16T04:49:25;6.97;;;5.05;;
69087;SDS011;56190;43.562;5.036;2024-01-16T04:51:50;6.50;;;5.15;;
69087;SDS011;56190;43.562;5.036;2024-01-16T04:54:15;5.20;;;4.70;;
69087;SDS011;56190;43.562;5.036;2024-01-16T04:56:40;6.72;;;5.20;;
69087;SDS011;56190;43.562;5.036;2024-01-16T04:59:06;6.63;;;5.50;;
69087;SDS011;56190;43.562;5.036;2024-01-16T05:01:31;6.85;;;5.40;;
69087;SDS011;56190;43.562;5.036;2024-01-16T05:03:56;8.13;;;5.82;;
69087;SDS011;56190;43.562;5.036;2024-01-16T05:06:21;7.63;;;6.22;;
69087;SDS011;56190;43.562;5.036;2024-01-16T05:08:47;7.53;;;5.80;;
69087;SDS011;56190;43.562;5.036;2024-01-16T05:11:12;7.38;;;6.20;;
69087;SDS011;56190;43.562;5.036;2024-01-16T05:13:37;8.27;;;6.22;;
69087;SDS011;56190;43.562;5.036;2024-01-16T05:16:03;7.03;;;5.22;;
69087;SDS011;56190;43.562;5.036;2024-01-16T05:18:28;7.18;;;5.80;;
69087;SDS011;56190;43.562;5.036;2024-01-16T05:20:53;7.35;;;5.90;;
69087;SDS011;56190;43.562;5.036;2024-01-16T05:23:21;8.13;;;5.82;;
69087;SDS011;56190;43.562;5.036;2024-01-16T05:25:46;9.60;;;7.80;;
69087;SDS011;56190;43.562;5.036;2024-01-16T05:28:11;6.93;;;5.63;;
69087;SDS011;56190;43.562;5.036;2024-01-16T05:30:36;7.65;;;6.28;;
69087;SDS011;56190;43.562;5.036;2024-01-16T05:33:02;7.22;;;6.07;;
69087;SDS011;56190;43.562;5.036;2024-01-16T05:35:27;8.98;;;6.70;;
69087;SDS011;56190;43.562;5.036;2024-01-16T05:37:53;9.43;;;7.30;;
69087;SDS011;56190;43.562;5.036;2024-01-16T05:40:18;8.20;;;6.88;;
69087;SDS011;56190;43.562;5.036;2024-01-16T05:42:44;8.93;;;7.25;;
69087;SDS011;56190;43.562;5.036;2024-01-16T05:45:09;9.93;;;7.45;;
69087;SDS011;56190;43.562;5.036;2024-01-16T05:47:34;10.27;;;7.97;;
69087;SDS011;56190;43.562;5.036;2024-01-16T05:50:00;9.70;;;7.97;;
69087;SDS011;56190;43.562;5.036;2024-01-16T05:52:25;11.60;;;9.27;;
69087;SDS011;56190;43.562;5.036;2024-01-16T05:54:50;11.38;;;8.45;;
69087;SDS011;56190;43.562;5.036;2024-01-16T05:57:15;10.57;;;8.35;;
69087;SDS011;56190;43.562;5.036;2024-01-16T05:59:41;11.18;;;8.80;;
69087;SDS011;56190;43.562;5.036;2024-01-16T06:02:06;11.73;;;8.88;;
69087;SDS011;56190;43.562;5.036;2024-01-16T06:04:31;13.25;;;8.93;;
69087;SDS011;56190;43.562;5.036;2024-01-16T06:06:57;9.80;;;8.13;;
69087;SDS011;56190;43.562;5.036;2024-01-16T06:09:22;11.45;;;8.35;;
69087;SDS011;56190;43.562;5.036;2024-01-16T06:11:47;10.50;;;8.45;;
69087;SDS011;56190;43.562;5.036;2024-01-16T06:14:13;10.57;;;7.90;;
69087;SDS011;56190;43.562;5.036;2024-01-16T06:16:38;10.20;;;7.90;;
69087;SDS011;56190;43.562;5.036;2024-01-16T06:19:03;10.30;;;7.57;;
69087;SDS011;56190;43.562;5.036;2024-01-16T06:21:29;9.38;;;8.00;;
69087;SDS011;56190;43.562;5.036;2024-01-16T06:23:55;9.65;;;8.00;;
69087;SDS011;56190;43.562;5.036;2024-01-16T06:26:20;11.57;;;8.80;;
69087;SDS011;56190;43.562;5.036;2024-01-16T06:28:46;10.63;;;8.57;;
69087;SDS011;56190;43.562;5.036;2024-01-16T06:31:11;11.98;;;9.10;;
69087;SDS011;56190;43.562;5.036;2024-01-16T06:33:37;10.60;;;8.38;;
69087;SDS011;56190;43.562;5.036;2024-01-16T06:36:02;12.98;;;9.02;;
69087;SDS011;56190;43.562;5.036;2024-01-16T06:38:29;11.63;;;8.88;;
69087;SDS011;56190;43.562;5.036;2024-01-16T06:40:54;10.90;;;8.55;;
69087;SDS011;56190;43.562;5.036;2024-01-16T06:43:19;10.57;;;7.85;;
69087;SDS011;56190;43.562;5.036;2024-01-16T06:45:45;10.95;;;8.18;;
69087;SDS011;56190;43.562;5.036;2024-01-16T06:48:10;10.57;;;8.70;;
69087;SDS011;56190;43.562;5.036;2024-01-16T06:50:36;12.90;;;9.05;;
69087;SDS011;56190;43.562;5.036;2024-01-16T06:53:01;11.30;;;8.38;;
69087;SDS011;56190;43.562;5.036;2024-01-16T06:55:26;11.25;;;8.93;;
69087;SDS011;56190;43.562;5.036;2024-01-16T06:57:52;11.13;;;9.15;;
69087;SDS011;56190;43.562;5.036;2024-01-16T07:00:17;13.05;;;9.63;;
69087;SDS011;56190;43.562;5.036;2024-01-16T07:02:42;11.13;;;8.85;;
69087;SDS011;56190;43.562;5.036;2024-01-16T07:05:08;10.75;;;9.05;;
69087;SDS011;56190;43.562;5.036;2024-01-16T07:07:34;12.45;;;9.38;;
69087;SDS011;56190;43.562;5.036;2024-01-16T07:09:59;11.10;;;9.68;;
69087;SDS011;56190;43.562;5.036;2024-01-16T07:12:25;13.30;;;10.55;;
69087;SDS011;56190;43.562;5.036;2024-01-16T07:14:50;12.52;;;10.25;;
69087;SDS011;56190;43.562;5.036;2024-01-16T07:17:15;14.93;;;10.40;;
69087;SDS011;56190;43.562;5.036;2024-01-16T07:19:41;14.43;;;9.25;;
69087;SDS011;56190;43.562;5.036;2024-01-16T07:22:06;12.27;;;9.07;;
69087;SDS011;56190;43.562;5.036;2024-01-16T07:24:31;15.40;;;9.93;;
69087;SDS011;56190;43.562;5.036;2024-01-16T07:26:56;12.55;;;9.38;;
69087;SDS011;56190;43.562;5.036;2024-01-16T07:29:22;11.63;;;9.35;;
69087;SDS011;56190;43.562;5.036;2024-01-16T07:31:47;10.98;;;8.73;;
69087;SDS011;56190;43.562;5.036;2024-01-16T07:34:12;13.23;;;9.15;;
69087;SDS011;56190;43.562;5.036;2024-01-16T07:36:42;12.38;;;9.55;;
69087;SDS011;56190;43.562;5.036;2024-01-16T07:39:07;12.07;;;10.15;;
69087;SDS011;56190;43.562;5.036;2024-01-16T07:41:33;11.57;;;9.02;;
69087;SDS011;56190;43.562;5.036;2024-01-16T07:43:58;11.13;;;9.40;;
69087;SDS011;56190;43.562;5.036;2024-01-16T07:46:24;13.93;;;9.82;;
69087;SDS011;56190;43.562;5.036;2024-01-16T07:48:50;11.43;;;9.35;;
69087;SDS011;56190;43.562;5.036;2024-01-16T07:51:15;11.43;;;9.35;;
69087;SDS011;56190;43.562;5.036;2024-01-16T07:53:41;12.93;;;9.48;;
69087;SDS011;56190;43.562;5.036;2024-01-16T07:56:06;13.35;;;9.15;;
69087;SDS011;56190;43.562;5.036;2024-01-16T07:58:31;10.70;;;8.85;;
69087;SDS011;56190;43.562;5.036;2024-01-16T08:00:56;13.02;;;9.68;;
69087;SDS011;56190;43.562;5.036;2024-01-16T08:03:22;12.07;;;9.27;;
69087;SDS011;56190;43.562;5.036;2024-01-16T08:05:47;13.05;;;10.05;;
69087;SDS011;56190;43.562;5.036;2024-01-16T08:08:12;14.20;;;10.95;;
69087;SDS011;56190;43.562;5.036;2024-01-16T08:10:37;11.55;;;9.20;;
69087;SDS011;56190;43.562;5.036;2024-01-16T08:13:03;13.68;;;9.93;;
69087;SDS011;56190;43.562;5.036;2024-01-16T08:15:28;12.77;;;9.70;;
69087;SDS011;56190;43.562;5.036;2024-01-16T08:17:53;12.57;;;9.48;;
69087;SDS011;56190;43.562;5.036;2024-01-16T08:20:19;11.32;;;9.02;;
69087;SDS011;56190;43.562;5.036;2024-01-16T08:22:44;12.57;;;8.95;;
69087;SDS011;56190;43.562;5.036;2024-01-16T08:25:09;12.13;;;9.98;;
69087;SDS011;56190;43.562;5.036;2024-01-16T08:27:34;14.30;;;12.30;;
69087;SDS011;56190;43.562;5.036;2024-01-16T08:30:02;12.85;;;10.70;;
69087;SDS011;56190;43.562;5.036;2024-01-16T08:32:27;13.15;;;10.77;;
69087;SDS011;56190;43.562;5.036;2024-01-16T08:34:53;20.50;;;15.20;;
69087;SDS011;56190;43.562;5.036;2024-01-16T08:37:18;21.00;;;15.73;;
69087;SDS011;56190;43.562;5.036;2024-01-16T08:39:43;15.13;;;10.73;;
69087;SDS011;56190;43.562;5.036;2024-01-16T08:42:09;12.48;;;9.75;;
69087;SDS011;56190;43.562;5.036;2024-01-16T08:44:37;17.30;;;12.98;;
69087;SDS011;56190;43.562;5.036;2024-01-16T08:47:02;16.95;;;13.48;;
69087;SDS011;56190;43.562;5.036;2024-01-16T08:49:29;18.42;;;13.98;;
69087;SDS011;56190;43.562;5.036;2024-01-16T08:51:55;20.65;;;16.92;;
69087;SDS011;56190;43.562;5.036;2024-01-16T08:54:20;21.70;;;16.80;;
69087;SDS011;56190;43.562;5.036;2024-01-16T08:56:47;21.67;;;17.13;;
69087;SDS011;56190;43.562;5.036;2024-01-16T08:59:13;21.35;;;17.73;;
69087;SDS011;56190;43.562;5.036;2024-01-16T09:01:38;22.65;;;17.92;;
69087;SDS011;56190;43.562;5.036;2024-01-16T09:04:06;22.77;;;18.05;;
69087;SDS011;56190;43.562;5.036;2024-01-16T09:06:31;20.60;;;16.13;;
69087;SDS011;56190;43.562;5.036;2024-01-16T09:08:57;17.38;;;14.30;;
69087;SDS011;56190;43.562;5.036;2024-01-16T09:11:22;17.92;;;14.85;;
69087;SDS011;56190;43.562;5.036;2024-01-16T09:13:47;18.48;;;14.75;;
69087;SDS011;56190;43.562;5.036;2024-01-16T09:16:12;16.52;;;14.25;;
69087;SDS011;56190;43.562;5.036;2024-01-16T09:18:38;17.65;;;14.07;;
69087;SDS011;56190;43.562;5.036;2024-01-16T09:21:03;17.45;;;14.35;;
69087;SDS011;56190;43.562;5.036;2024-01-16T09:23:28;18.23;;;15.23;;
69087;SDS011;56190;43.562;5.036;2024-01-16T09:25:54;17.77;;;14.13;;
69087;SDS011;56190;43.562;5.036;2024-01-16T09:28:19;17.38;;;14.23;;
69087;SDS011;56190;43.562;5.036;2024-01-16T09:30:44;18.10;;;14.80;;
69087;SDS011;56190;43.562;5.036;2024-01-16T09:33:10;19.08;;;16.27;;
69087;SDS011;56190;43.562;5.036;2024-01-16T09:35:36;20.98;;;18.70;;
69087;SDS011;56190;43.562;5.036;2024-01-16T09:38:01;16.35;;;13.70;;
69087;SDS011;56190;43.562;5.036;2024-01-16T09:40:26;16.83;;;13.68;;
69087;SDS011;56190;43.562;5.036;2024-01-16T09:42:52;16.33;;;13.15;;
69087;SDS011;56190;43.562;5.036;2024-01-16T09:45:20;16.63;;;12.98;;
69087;SDS011;56190;43.562;5.036;2024-01-16T09:47:49;13.52;;;11.63;;
69087;SDS011;56190;43.562;5.036;2024-01-16T09:50:15;14.18;;;11.40;;
69087;SDS011;56190;43.562;5.036;2024-01-16T09:52:41;18.05;;;14.63;;
69087;SDS011;56190;43.562;5.036;2024-01-16T09:55:06;18.50;;;14.95;;
69087;SDS011;56190;43.562;5.036;2024-01-16T09:57:32;17.13;;;13.82;;
69087;SDS011;56190;43.562;5.036;2024-01-16T09:59:57;19.30;;;14.88;;
69087;SDS011;56190;43.562;5.036;2024-01-16T10:02:23;16.92;;;12.50;;
69087;SDS011;56190;43.562;5.036;2024-01-16T10:04:49;17.58;;;13.68;;
69087;SDS011;56190;43.562;5.036;2024-01-16T10:07:14;16.25;;;12.32;;
69087;SDS011;56190;43.562;5.036;2024-01-16T10:09:40;14.63;;;12.40;;
69087;SDS011;56190;43.562;5.036;2024-01-16T10:12:06;16.98;;;13.75;;
69087;SDS011;56190;43.562;5.036;2024-01-16T10:14:32;18.48;;;13.30;;
69087;SDS011;56190;43.562;5.036;2024-01-16T10:16:58;16.17;;;12.43;;
69087;SDS011;56190;43.562;5.036;2024-01-16T10:19:24;17.30;;;13.57;;
69087;SDS011;56190;43.562;5.036;2024-01-16T10:21:50;15.30;;;12.32;;
69087;SDS011;56190;43.562;5.036;2024-01-16T10:24:15;16.35;;;13.52;;
69087;SDS011;56190;43.562;5.036;2024-01-16T10:26:41;18.27;;;14.48;;
69087;SDS011;56190;43.562;5.036;2024-01-16T10:29:06;16.40;;;13.75;;
69087;SDS011;56190;43.562;5.036;2024-01-16T10:31:31;16.15;;;12.95;;
69087;SDS011;56190;43.562;5.036;2024-01-16T10:33:57;15.88;;;12.15;;
69087;SDS011;56190;43.562;5.036;2024-01-16T10:36:23;16.08;;;13.18;;
69087;SDS011;56190;43.562;5.036;2024-01-16T10:38:48;15.25;;;11.88;;
69087;SDS011;56190;43.562;5.036;2024-01-16T10:41:17;15.05;;;12.52;;
69087;SDS011;56190;43.562;5.036;2024-01-16T10:43:43;14.23;;;12.32;;
69087;SDS011;56190;43.562;5.036;2024-01-16T10:46:17;15.55;;;11.88;;
69087;SDS011;56190;43.562;5.036;2024-01-16T10:48:43;14.30;;;11.18;;
69087;SDS011;56190;43.562;5.036;2024-01-16T10:51:13;14.35;;;11.93;;
69087;SDS011;56190;43.562;5.036;2024-01-16T10:53:41;15.82;;;11.90;;
69087;SDS011;56190;43.562;5.036;2024-01-16T10:56:06;15.40;;;12.25;;
69087;SDS011;56190;43.562;5.036;2024-01-16T10:58:35;14.30;;;11.65;;
69087;SDS011;56190;43.562;5.036;2024-01-16T11:01:02;13.90;;;11.10;;
69087;SDS011;56190;43.562;5.036;2024-01-16T11:03:35;14.05;;;11.82;;
69087;SDS011;56190;43.562;5.036;2024-01-16T11:08:28;12.95;;;11.45;;
69087;SDS011;56190;43.562;5.036;2024-01-16T11:10:57;15.85;;;13.15;;
69087;SDS011;56190;43.562;5.036;2024-01-16T11:13:24;18.38;;;14.77;;
69087;SDS011;56190;43.562;5.036;2024-01-16T11:15:50;18.02;;;14.98;;
69087;SDS011;56190;43.562;5.036;2024-01-16T11:18:15;15.75;;;12.88;;
69087;SDS011;56190;43.562;5.036;2024-01-16T11:20:41;18.02;;;12.70;;
69087;SDS011;56190;43.562;5.036;2024-01-16T11:23:08;14.15;;;11.85;;
69087;SDS011;56190;43.562;5.036;2024-01-16T11:25:33;14.80;;;12.23;;
69087;SDS011;56190;43.562;5.036;2024-01-16T11:28:31;13.70;;;11.43;;
69087;SDS011;56190;43.562;5.036;2024-01-16T11:30:50;16.73;;;12.27;;
69087;SDS011;56190;43.562;5.036;2024-01-16T11:35:56;15.00;;;11.85;;
69087;SDS011;56190;43.562;5.036;2024-01-16T11:38:22;13.35;;;10.88;;
69087;SDS011;56190;43.562;5.036;2024-01-16T11:40:48;12.60;;;10.40;;
69087;SDS011;56190;43.562;5.036;2024-01-16T11:46:00;17.02;;;13.40;;
69087;SDS011;56190;43.562;5.036;2024-01-16T11:48:26;11.05;;;9.88;;
69087;SDS011;56190;43.562;5.036;2024-01-16T11:50:52;12.70;;;10.18;;
69087;SDS011;56190;43.562;5.036;2024-01-16T11:56:05;10.38;;;9.23;;
69087;SDS011;56190;43.562;5.036;2024-01-16T11:58:45;11.75;;;9.55;;
69087;SDS011;56190;43.562;5.036;2024-01-16T12:01:13;11.13;;;9.45;;
69087;SDS011;56190;43.562;5.036;2024-01-16T12:03:39;11.05;;;8.80;;
69087;SDS011;56190;43.562;5.036;2024-01-16T12:06:04;10.57;;;8.02;;
69087;SDS011;56190;43.562;5.036;2024-01-16T12:08:31;10.18;;;8.68;;
69087;SDS011;56190;43.562;5.036;2024-01-16T12:10:57;9.05;;;7.93;;
69087;SDS011;56190;43.562;5.036;2024-01-16T12:13:22;13.00;;;9.90;;
69087;SDS011;56190;43.562;5.036;2024-01-16T12:15:48;9.45;;;8.45;;
69087;SDS011;56190;43.562;5.036;2024-01-16T12:18:19;11.13;;;7.97;;
69087;SDS011;56190;43.562;5.036;2024-01-16T12:20:44;7.63;;;6.60;;
69087;SDS011;56190;43.562;5.036;2024-01-16T12:23:10;8.48;;;6.15;;
69087;SDS011;56190;43.562;5.036;2024-01-16T12:25:38;6.15;;;5.20;;
69087;SDS011;56190;43.562;5.036;2024-01-16T12:28:04;7.03;;;5.78;;
69087;SDS011;56190;43.562;5.036;2024-01-16T12:30:30;7.95;;;6.78;;
69087;SDS011;56190;43.562;5.036;2024-01-16T12:35:27;7.20;;;5.47;;
69087;SDS011;56190;43.562;5.036;2024-01-16T12:37:59;6.80;;;5.68;;
69087;SDS011;56190;43.562;5.036;2024-01-16T12:40:25;8.25;;;6.35;;
69087;SDS011;56190;43.562;5.036;2024-01-16T12:42:50;7.80;;;5.82;;
69087;SDS011;56190;43.562;5.036;2024-01-16T12:45:16;6.88;;;5.30;;
69087;SDS011;56190;43.562;5.036;2024-01-16T12:47:42;7.65;;;6.00;;
69087;SDS011;56190;43.562;5.036;2024-01-16T12:50:08;8.27;;;6.80;;
69087;SDS011;56190;43.562;5.036;2024-01-16T12:52:33;8.43;;;6.30;;
69087;SDS011;56190;43.562;5.036;2024-01-16T12:54:59;8.10;;;5.97;;
69087;SDS011;56190;43.562;5.036;2024-01-16T12:57:29;7.57;;;6.40;;
69087;SDS011;56190;43.562;5.036;2024-01-16T12:59:55;9.07;;;6.95;;
69087;SDS011;56190;43.562;5.036;2024-01-16T13:02:22;11.10;;;9.32;;
69087;SDS011;56190;43.562;5.036;2024-01-16T13:04:48;11.13;;;9.18;;
69087;SDS011;56190;43.562;5.036;2024-01-16T13:07:16;11.25;;;10.05;;
69087;SDS011;56190;43.562;5.036;2024-01-16T13:09:43;9.90;;;8.68;;
69087;SDS011;56190;43.562;5.036;2024-01-16T13:12:08;10.65;;;9.15;;
69087;SDS011;56190;43.562;5.036;2024-01-16T13:14:33;10.82;;;8.98;;
69087;SDS011;56190;43.562;5.036;2024-01-16T13:16:59;11.68;;;10.40;;
69087;SDS011;56190;43.562;5.036;2024-01-16T13:19:26;12.85;;;10.65;;
69087;SDS011;56190;43.562;5.036;2024-01-16T13:21:52;12.32;;;9.75;;
69087;SDS011;56190;43.562;5.036;2024-01-16T13:24:17;14.40;;;11.63;;
69087;SDS011;56190;43.562;5.036;2024-01-16T13:26:45;21.58;;;16.40;;
69087;SDS011;56190;43.562;5.036;2024-01-16T13:29:10;14.32;;;10.85;;
69087;SDS011;56190;43.562;5.036;2024-01-16T13:31:36;12.68;;;10.93;;
69087;SDS011;56190;43.562;5.036;2024-01-16T13:34:01;11.35;;;9.90;;
69087;SDS011;56190;43.562;5.036;2024-01-16T13:36:27;14.73;;;10.65;;
69087;SDS011;56190;43.562;5.036;2024-01-16T13:38:53;15.75;;;12.55;;
69087;SDS011;56190;43.562;5.036;2024-01-16T13:41:18;18.10;;;13.00;;
69087;SDS011;56190;43.562;5.036;2024-01-16T13:43:44;17.25;;;13.35;;
69087;SDS011;56190;43.562;5.036;2024-01-16T13:46:09;16.65;;;12.00;;
69087;SDS011;56190;43.562;5.036;2024-01-16T13:48:35;15.98;;;11.85;;
69087;SDS011;56190;43.562;5.036;2024-01-16T13:51:00;16.17;;;12.93;;
69087;SDS011;56190;43.562;5.036;2024-01-16T13:53:25;14.75;;;12.25;;
69087;SDS011;56190;43.562;5.036;2024-01-16T13:55:52;15.95;;;12.95;;
69087;SDS011;56190;43.562;5.036;2024-01-16T13:58:17;14.90;;;12.93;;
69087;SDS011;56190;43.562;5.036;2024-01-16T14:00:43;15.73;;;12.52;;
69087;SDS011;56190;43.562;5.036;2024-01-16T14:03:08;16.52;;;13.00;;
69087;SDS011;56190;43.562;5.036;2024-01-16T14:05:34;16.02;;;13.23;;
69087;SDS011;56190;43.562;5.036;2024-01-16T14:08:01;17.98;;;13.40;;
69087;SDS011;56190;43.562;5.036;2024-01-16T14:10:26;17.30;;;12.45;;
69087;SDS011;56190;43.562;5.036;2024-01-16T14:12:51;17.05;;;12.52;;
69087;SDS011;56190;43.562;5.036;2024-01-16T14:15:17;15.50;;;11.98;;
69087;SDS011;56190;43.562;5.036;2024-01-16T14:17:50;18.33;;;12.77;;
69087;SDS011;56190;43.562;5.036;2024-01-16T14:20:16;14.98;;;11.68;;
69087;SDS011;56190;43.562;5.036;2024-01-16T14:22:41;16.38;;;12.55;;
69087;SDS011;56190;43.562;5.036;2024-01-16T14:25:08;15.75;;;13.40;;
69087;SDS011;56190;43.562;5.036;2024-01-16T14:27:40;17.77;;;13.60;;
69087;SDS011;56190;43.562;5.036;2024-01-16T14:30:07;16.02;;;14.27;;
69087;SDS011;56190;43.562;5.036;2024-01-16T14:32:35;18.00;;;13.77;;
69087;SDS011;56190;43.562;5.036;2024-01-16T14:35:00;17.20;;;13.80;;
69087;SDS011;56190;43.562;5.036;2024-01-16T14:37:26;18.77;;;14.50;;
69087;SDS011;56190;43.562;5.036;2024-01-16T14:39:52;18.60;;;14.85;;